This is the latest recevied weather packets stored in our database for station/object KI8L. If no packets are shown the sender has not sent any weather packets the latest 10 day(s).
| Time | Temp. | Humidity | Pressure | Rain* | Wind** | Luminosity | Snow |
|---|---|---|---|---|---|---|---|
| 1777842721 | 15° C | 45% | 1015.3 hPa | 0 mm | - | 177 W/m² | - |
| 1777842418 | 15° C | 45% | 1015.5 hPa | 0 mm | - | 262 W/m² | - |
| 1777842115 | 15° C | 44% | 1015.5 hPa | 0 mm | - | 353 W/m² | - |
| 1777841810 | 15° C | 45% | 1015.5 hPa | 0 mm | - | 159 W/m² | - |
| 1777841506 | 15.56° C | 45% | 1015.5 hPa | 0 mm | - | 449 W/m² | - |
| 1777841203 | 15° C | 43% | 1015.4 hPa | 0 mm | - | 297 W/m² | - |
| 1777840901 | 15° C | 46% | 1015.5 hPa | 0 mm | - | 196 W/m² | - |
| 1777840598 | 15.56° C | 44% | 1015.6 hPa | 0 mm | - | 307 W/m² | - |
| 1777840296 | 15.56° C | 41% | 1015.7 hPa | 0 mm | - | 399 W/m² | - |
| 1777839993 | 15.56° C | 42% | 1015.7 hPa | 0 mm | - | 378 W/m² | - |
| 1777839691 | 15° C | 43% | 1015.7 hPa | 0 mm | - | 541 W/m² | - |
| 1777839388 | 15° C | 50% | 1015.8 hPa | 0 mm | - | 208 W/m² | - |
| 1777839086 | 16.11° C | 43% | 1015.8 hPa | 0 mm | - | 473 W/m² | - |
| 1777838781 | 15° C | 43% | 1015.9 hPa | 0 mm | - | 617 W/m² | - |
| 1777838478 | 15° C | 43% | 1016 hPa | 0 mm | - | 614 W/m² | - |
| 1777838175 | 14.44° C | 47% | 1016 hPa | 0 mm | - | 211 W/m² | - |
| 1777837872 | 14.44° C | 43% | 1016.1 hPa | 0 mm | - | 248 W/m² | - |
| 1777837570 | 15° C | 44% | 1016.1 hPa | 0 mm | - | 237 W/m² | - |
| 1777837269 | 15° C | 43% | 1016.3 hPa | 0 mm | - | 674 W/m² | - |
| 1777836967 | 15.56° C | 44% | 1016.2 hPa | 0 mm | - | 173 W/m² | - |
| 1777836662 | 15.56° C | 43% | 1016.4 hPa | 0 mm | - | 611 W/m² | - |
| 1777836358 | 15° C | 44% | 1016.5 hPa | 0 mm | - | 516 W/m² | - |
| 1777836054 | 14.44° C | 46% | 1016.6 hPa | 0 mm | - | 246 W/m² | - |
| 1777835751 | 15° C | 46% | 1016.6 hPa | 0 mm | - | 245 W/m² | - |
| 1777835448 | 16.11° C | 41% | 1016.9 hPa | 0 mm | - | 197 W/m² | - |
* Rain latest hour (hover to see other rain measurements)
** Current wind speed in m/s (hover to see current wind gust speed)